sensor_id;sensor_type;location;lat;lon;timestamp;temperature;humidity
68051;DHT22;54839;51.364;7.246;2023-10-31T00:01:20;11.80;99.90
68051;DHT22;54839;51.364;7.246;2023-10-31T00:03:46;11.70;99.90
68051;DHT22;54839;51.364;7.246;2023-10-31T00:06:11;11.60;99.90
68051;DHT22;54839;51.364;7.246;2023-10-31T00:08:37;11.50;99.90
68051;DHT22;54839;51.364;7.246;2023-10-31T00:11:02;11.30;99.90
68051;DHT22;54839;51.364;7.246;2023-10-31T00:13:28;11.30;99.90
68051;DHT22;54839;51.364;7.246;2023-10-31T00:15:54;11.20;99.90
68051;DHT22;54839;51.364;7.246;2023-10-31T00:18:19;11.20;99.90
68051;DHT22;54839;51.364;7.246;2023-10-31T00:20:46;11.10;99.90
68051;DHT22;54839;51.364;7.246;2023-10-31T00:23:12;11.10;99.90
68051;DHT22;54839;51.364;7.246;2023-10-31T00:25:37;11.00;99.90
68051;DHT22;54839;51.364;7.246;2023-10-31T00:28:03;10.90;99.90
68051;DHT22;54839;51.364;7.246;2023-10-31T00:30:29;11.00;99.90
68051;DHT22;54839;51.364;7.246;2023-10-31T00:32:54;10.90;99.90
68051;DHT22;54839;51.364;7.246;2023-10-31T00:35:20;10.80;99.90
68051;DHT22;54839;51.364;7.246;2023-10-31T00:37:45;10.80;99.90
68051;DHT22;54839;51.364;7.246;2023-10-31T00:40:11;10.80;99.90
68051;DHT22;54839;51.364;7.246;2023-10-31T00:42:39;10.80;99.90
68051;DHT22;54839;51.364;7.246;2023-10-31T00:45:07;10.90;99.90
68051;DHT22;54839;51.364;7.246;2023-10-31T00:47:33;10.70;99.90
68051;DHT22;54839;51.364;7.246;2023-10-31T00:49:59;10.90;99.90
68051;DHT22;54839;51.364;7.246;2023-10-31T00:52:24;10.80;99.90
68051;DHT22;54839;51.364;7.246;2023-10-31T00:54:50;10.80;99.90
68051;DHT22;54839;51.364;7.246;2023-10-31T00:57:15;10.80;99.90
68051;DHT22;54839;51.364;7.246;2023-10-31T00:59:41;10.70;99.90
68051;DHT22;54839;51.364;7.246;2023-10-31T01:02:07;10.70;99.90
68051;DHT22;54839;51.364;7.246;2023-10-31T01:04:32;10.70;99.90
68051;DHT22;54839;51.364;7.246;2023-10-31T01:06:58;10.70;99.90
68051;DHT22;54839;51.364;7.246;2023-10-31T01:09:23;10.70;99.90
68051;DHT22;54839;51.364;7.246;2023-10-31T01:11:49;10.70;99.90
68051;DHT22;54839;51.364;7.246;2023-10-31T01:14:14;10.50;99.90
68051;DHT22;54839;51.364;7.246;2023-10-31T01:16:40;10.40;99.90
68051;DHT22;54839;51.364;7.246;2023-10-31T01:19:06;10.50;99.90
68051;DHT22;54839;51.364;7.246;2023-10-31T01:21:32;10.40;99.90
68051;DHT22;54839;51.364;7.246;2023-10-31T01:23:59;10.40;99.90
68051;DHT22;54839;51.364;7.246;2023-10-31T01:26:25;10.30;99.90
68051;DHT22;54839;51.364;7.246;2023-10-31T01:28:50;10.30;99.90
68051;DHT22;54839;51.364;7.246;2023-10-31T01:31:16;10.40;99.90
68051;DHT22;54839;51.364;7.246;2023-10-31T01:33:42;10.30;99.90
68051;DHT22;54839;51.364;7.246;2023-10-31T01:36:08;10.30;99.90
68051;DHT22;54839;51.364;7.246;2023-10-31T01:38:34;10.40;99.90
68051;DHT22;54839;51.364;7.246;2023-10-31T01:40:59;10.30;99.90
68051;DHT22;54839;51.364;7.246;2023-10-31T01:43:32;10.30;99.90
68051;DHT22;54839;51.364;7.246;2023-10-31T01:45:58;10.30;99.90
68051;DHT22;54839;51.364;7.246;2023-10-31T01:48:25;10.30;99.90
68051;DHT22;54839;51.364;7.246;2023-10-31T01:50:52;10.40;99.90
68051;DHT22;54839;51.364;7.246;2023-10-31T01:53:18;10.30;99.90
68051;DHT22;54839;51.364;7.246;2023-10-31T01:55:45;10.30;99.90
68051;DHT22;54839;51.364;7.246;2023-10-31T01:58:11;10.40;99.90
68051;DHT22;54839;51.364;7.246;2023-10-31T02:00:40;10.20;99.90
68051;DHT22;54839;51.364;7.246;2023-10-31T02:03:07;10.00;99.90
68051;DHT22;54839;51.364;7.246;2023-10-31T02:05:33;10.00;99.90
68051;DHT22;54839;51.364;7.246;2023-10-31T02:08:00;9.90;99.90
68051;DHT22;54839;51.364;7.246;2023-10-31T02:10:26;9.80;99.90
68051;DHT22;54839;51.364;7.246;2023-10-31T02:12:51;9.70;99.90
68051;DHT22;54839;51.364;7.246;2023-10-31T02:15:17;9.70;99.90
68051;DHT22;54839;51.364;7.246;2023-10-31T02:17:42;9.70;99.90
68051;DHT22;54839;51.364;7.246;2023-10-31T02:20:08;9.70;99.90
68051;DHT22;54839;51.364;7.246;2023-10-31T02:22:34;9.60;99.90
68051;DHT22;54839;51.364;7.246;2023-10-31T02:24:59;9.60;99.90
68051;DHT22;54839;51.364;7.246;2023-10-31T02:27:25;9.60;99.90
68051;DHT22;54839;51.364;7.246;2023-10-31T02:29:50;9.60;99.90
68051;DHT22;54839;51.364;7.246;2023-10-31T02:32:16;9.50;99.90
68051;DHT22;54839;51.364;7.246;2023-10-31T02:34:42;9.60;99.90
68051;DHT22;54839;51.364;7.246;2023-10-31T02:37:07;9.60;99.90
68051;DHT22;54839;51.364;7.246;2023-10-31T02:39:33;9.50;99.90
68051;DHT22;54839;51.364;7.246;2023-10-31T02:41:59;9.50;99.90
68051;DHT22;54839;51.364;7.246;2023-10-31T02:44:24;9.40;99.90
68051;DHT22;54839;51.364;7.246;2023-10-31T02:46:50;9.50;99.90
68051;DHT22;54839;51.364;7.246;2023-10-31T02:49:15;9.50;99.90
68051;DHT22;54839;51.364;7.246;2023-10-31T02:51:41;9.60;99.90
68051;DHT22;54839;51.364;7.246;2023-10-31T02:54:06;9.50;99.90
68051;DHT22;54839;51.364;7.246;2023-10-31T02:56:32;9.60;99.90
68051;DHT22;54839;51.364;7.246;2023-10-31T02:58:57;9.50;99.90
68051;DHT22;54839;51.364;7.246;2023-10-31T03:01:23;9.70;99.90
68051;DHT22;54839;51.364;7.246;2023-10-31T03:03:48;9.60;99.90
68051;DHT22;54839;51.364;7.246;2023-10-31T03:06:14;9.60;99.90
68051;DHT22;54839;51.364;7.246;2023-10-31T03:08:39;9.60;99.90
68051;DHT22;54839;51.364;7.246;2023-10-31T03:11:05;9.60;99.90
68051;DHT22;54839;51.364;7.246;2023-10-31T03:13:30;9.60;99.90
68051;DHT22;54839;51.364;7.246;2023-10-31T03:15:56;9.70;99.90
68051;DHT22;54839;51.364;7.246;2023-10-31T03:18:21;9.80;99.90
68051;DHT22;54839;51.364;7.246;2023-10-31T03:20:48;9.70;99.90
68051;DHT22;54839;51.364;7.246;2023-10-31T03:23:14;9.70;99.90
68051;DHT22;54839;51.364;7.246;2023-10-31T03:25:40;9.80;99.90
68051;DHT22;54839;51.364;7.246;2023-10-31T03:28:18;9.70;99.90
68051;DHT22;54839;51.364;7.246;2023-10-31T03:30:45;9.70;99.90
68051;DHT22;54839;51.364;7.246;2023-10-31T03:33:11;9.80;99.90
68051;DHT22;54839;51.364;7.246;2023-10-31T03:35:36;9.70;99.90
68051;DHT22;54839;51.364;7.246;2023-10-31T03:38:02;9.80;99.90
68051;DHT22;54839;51.364;7.246;2023-10-31T03:40:28;9.80;99.90
68051;DHT22;54839;51.364;7.246;2023-10-31T03:42:53;9.80;99.90
68051;DHT22;54839;51.364;7.246;2023-10-31T03:45:19;9.80;99.90
68051;DHT22;54839;51.364;7.246;2023-10-31T03:47:44;9.80;99.90
68051;DHT22;54839;51.364;7.246;2023-10-31T03:50:10;9.70;99.90
68051;DHT22;54839;51.364;7.246;2023-10-31T03:52:35;9.70;99.90
68051;DHT22;54839;51.364;7.246;2023-10-31T03:55:01;9.70;99.90
68051;DHT22;54839;51.364;7.246;2023-10-31T03:57:26;9.70;99.90
68051;DHT22;54839;51.364;7.246;2023-10-31T03:59:52;9.70;99.90
68051;DHT22;54839;51.364;7.246;2023-10-31T04:02:17;9.70;99.90
68051;DHT22;54839;51.364;7.246;2023-10-31T04:04:43;9.70;99.90
68051;DHT22;54839;51.364;7.246;2023-10-31T04:07:09;9.70;99.90
68051;DHT22;54839;51.364;7.246;2023-10-31T04:09:34;9.60;99.90
68051;DHT22;54839;51.364;7.246;2023-10-31T04:12:00;9.60;99.90
68051;DHT22;54839;51.364;7.246;2023-10-31T04:14:25;9.70;99.90
68051;DHT22;54839;51.364;7.246;2023-10-31T04:16:51;9.60;99.90
68051;DHT22;54839;51.364;7.246;2023-10-31T04:19:16;9.50;99.90
68051;DHT22;54839;51.364;7.246;2023-10-31T04:21:42;9.60;99.90
68051;DHT22;54839;51.364;7.246;2023-10-31T04:24:07;9.60;99.90
68051;DHT22;54839;51.364;7.246;2023-10-31T04:26:33;9.60;99.90
68051;DHT22;54839;51.364;7.246;2023-10-31T04:28:58;9.60;99.90
68051;DHT22;54839;51.364;7.246;2023-10-31T04:31:24;9.60;99.90
68051;DHT22;54839;51.364;7.246;2023-10-31T04:33:49;9.50;99.90
68051;DHT22;54839;51.364;7.246;2023-10-31T04:36:15;9.60;99.90
68051;DHT22;54839;51.364;7.246;2023-10-31T04:38:41;9.60;99.90
68051;DHT22;54839;51.364;7.246;2023-10-31T04:41:08;9.60;99.90
68051;DHT22;54839;51.364;7.246;2023-10-31T04:43:34;9.50;99.90
68051;DHT22;54839;51.364;7.246;2023-10-31T04:46:00;9.60;99.90
68051;DHT22;54839;51.364;7.246;2023-10-31T04:48:26;9.50;99.90
68051;DHT22;54839;51.364;7.246;2023-10-31T04:50:51;9.50;99.90
68051;DHT22;54839;51.364;7.246;2023-10-31T04:53:17;9.50;99.90
68051;DHT22;54839;51.364;7.246;2023-10-31T04:55:42;9.40;99.90
68051;DHT22;54839;51.364;7.246;2023-10-31T04:58:08;9.40;99.90
68051;DHT22;54839;51.364;7.246;2023-10-31T05:00:33;9.50;99.90
68051;DHT22;54839;51.364;7.246;2023-10-31T05:02:59;9.40;99.90
68051;DHT22;54839;51.364;7.246;2023-10-31T05:05:26;9.40;99.90
68051;DHT22;54839;51.364;7.246;2023-10-31T05:07:52;9.40;99.90
68051;DHT22;54839;51.364;7.246;2023-10-31T05:10:17;9.40;99.90
68051;DHT22;54839;51.364;7.246;2023-10-31T05:12:43;9.40;99.90
68051;DHT22;54839;51.364;7.246;2023-10-31T05:15:09;9.40;99.90
68051;DHT22;54839;51.364;7.246;2023-10-31T05:17:34;9.40;99.90
68051;DHT22;54839;51.364;7.246;2023-10-31T05:20:00;9.40;99.90
68051;DHT22;54839;51.364;7.246;2023-10-31T05:22:25;9.40;99.90
68051;DHT22;54839;51.364;7.246;2023-10-31T05:24:51;9.40;99.90
68051;DHT22;54839;51.364;7.246;2023-10-31T05:27:16;9.50;99.90
68051;DHT22;54839;51.364;7.246;2023-10-31T05:29:42;9.40;99.90
68051;DHT22;54839;51.364;7.246;2023-10-31T05:32:07;9.40;99.90
68051;DHT22;54839;51.364;7.246;2023-10-31T05:34:33;9.50;99.90
68051;DHT22;54839;51.364;7.246;2023-10-31T05:36:58;9.50;99.90
68051;DHT22;54839;51.364;7.246;2023-10-31T05:39:24;9.50;99.90
68051;DHT22;54839;51.364;7.246;2023-10-31T05:41:50;9.50;99.90
68051;DHT22;54839;51.364;7.246;2023-10-31T05:44:15;9.60;99.90
68051;DHT22;54839;51.364;7.246;2023-10-31T05:46:41;9.50;99.90
68051;DHT22;54839;51.364;7.246;2023-10-31T05:49:10;9.50;99.90
68051;DHT22;54839;51.364;7.246;2023-10-31T05:51:35;9.50;99.90
68051;DHT22;54839;51.364;7.246;2023-10-31T05:54:01;9.50;99.90
68051;DHT22;54839;51.364;7.246;2023-10-31T05:56:27;9.40;99.90
68051;DHT22;54839;51.364;7.246;2023-10-31T05:58:53;9.50;99.90
68051;DHT22;54839;51.364;7.246;2023-10-31T06:01:18;9.60;99.90
68051;DHT22;54839;51.364;7.246;2023-10-31T06:03:44;9.50;99.90
68051;DHT22;54839;51.364;7.246;2023-10-31T06:06:10;9.40;99.90
68051;DHT22;54839;51.364;7.246;2023-10-31T06:08:37;9.50;99.90
68051;DHT22;54839;51.364;7.246;2023-10-31T06:11:03;9.50;99.90
68051;DHT22;54839;51.364;7.246;2023-10-31T06:13:29;9.50;99.90
68051;DHT22;54839;51.364;7.246;2023-10-31T06:15:56;9.40;99.90
68051;DHT22;54839;51.364;7.246;2023-10-31T06:18:23;9.60;99.90
68051;DHT22;54839;51.364;7.246;2023-10-31T06:20:49;9.50;99.90
68051;DHT22;54839;51.364;7.246;2023-10-31T06:23:14;9.40;99.90
68051;DHT22;54839;51.364;7.246;2023-10-31T06:25:40;9.50;99.90
68051;DHT22;54839;51.364;7.246;2023-10-31T06:28:05;9.50;99.90
68051;DHT22;54839;51.364;7.246;2023-10-31T06:30:31;9.50;99.90
68051;DHT22;54839;51.364;7.246;2023-10-31T06:32:58;9.50;99.90
68051;DHT22;54839;51.364;7.246;2023-10-31T06:35:23;9.40;99.90
68051;DHT22;54839;51.364;7.246;2023-10-31T06:37:53;9.50;99.90
68051;DHT22;54839;51.364;7.246;2023-10-31T06:40:19;9.40;99.90
68051;DHT22;54839;51.364;7.246;2023-10-31T06:42:45;9.50;99.90
68051;DHT22;54839;51.364;7.246;2023-10-31T06:45:10;9.40;99.90
68051;DHT22;54839;51.364;7.246;2023-10-31T06:47:36;9.50;99.90
68051;DHT22;54839;51.364;7.246;2023-10-31T06:50:01;9.50;99.90
68051;DHT22;54839;51.364;7.246;2023-10-31T06:52:27;9.50;99.90
68051;DHT22;54839;51.364;7.246;2023-10-31T06:54:53;9.60;99.90
68051;DHT22;54839;51.364;7.246;2023-10-31T06:57:18;9.60;99.90
68051;DHT22;54839;51.364;7.246;2023-10-31T06:59:44;9.70;99.90
68051;DHT22;54839;51.364;7.246;2023-10-31T07:02:09;9.60;99.90
68051;DHT22;54839;51.364;7.246;2023-10-31T07:04:35;9.70;99.90
68051;DHT22;54839;51.364;7.246;2023-10-31T07:07:01;9.60;99.90
68051;DHT22;54839;51.364;7.246;2023-10-31T07:09:26;9.70;99.90
68051;DHT22;54839;51.364;7.246;2023-10-31T07:11:52;9.70;99.90
68051;DHT22;54839;51.364;7.246;2023-10-31T07:14:18;9.90;99.90
68051;DHT22;54839;51.364;7.246;2023-10-31T07:16:44;9.80;99.90
68051;DHT22;54839;51.364;7.246;2023-10-31T07:19:10;9.80;99.90
68051;DHT22;54839;51.364;7.246;2023-10-31T07:21:36;9.90;99.90
68051;DHT22;54839;51.364;7.246;2023-10-31T07:24:02;10.00;99.90
68051;DHT22;54839;51.364;7.246;2023-10-31T07:26:27;9.90;99.90
68051;DHT22;54839;51.364;7.246;2023-10-31T07:28:53;9.90;99.90
68051;DHT22;54839;51.364;7.246;2023-10-31T07:31:19;9.90;99.90
68051;DHT22;54839;51.364;7.246;2023-10-31T07:33:45;10.10;99.90
68051;DHT22;54839;51.364;7.246;2023-10-31T07:36:11;10.10;99.90
68051;DHT22;54839;51.364;7.246;2023-10-31T07:38:36;10.00;99.90
68051;DHT22;54839;51.364;7.246;2023-10-31T07:41:02;10.00;99.90
68051;DHT22;54839;51.364;7.246;2023-10-31T07:43:28;10.10;99.90
68051;DHT22;54839;51.364;7.246;2023-10-31T07:45:53;10.10;99.90
68051;DHT22;54839;51.364;7.246;2023-10-31T07:48:19;10.10;99.90
68051;DHT22;54839;51.364;7.246;2023-10-31T07:50:44;10.20;99.90
68051;DHT22;54839;51.364;7.246;2023-10-31T07:53:10;10.10;99.90
68051;DHT22;54839;51.364;7.246;2023-10-31T07:55:35;10.10;99.90
68051;DHT22;54839;51.364;7.246;2023-10-31T07:58:01;10.10;99.90
68051;DHT22;54839;51.364;7.246;2023-10-31T08:00:27;10.10;99.90
68051;DHT22;54839;51.364;7.246;2023-10-31T08:02:52;10.10;99.90
68051;DHT22;54839;51.364;7.246;2023-10-31T08:05:18;10.00;99.90
68051;DHT22;54839;51.364;7.246;2023-10-31T08:07:44;10.10;99.90
68051;DHT22;54839;51.364;7.246;2023-10-31T08:10:10;10.20;99.90
68051;DHT22;54839;51.364;7.246;2023-10-31T08:12:36;10.20;99.90
68051;DHT22;54839;51.364;7.246;2023-10-31T08:15:02;10.20;99.90
68051;DHT22;54839;51.364;7.246;2023-10-31T08:17:27;10.20;99.90
68051;DHT22;54839;51.364;7.246;2023-10-31T08:19:53;10.20;99.90
68051;DHT22;54839;51.364;7.246;2023-10-31T08:22:18;10.10;99.90
68051;DHT22;54839;51.364;7.246;2023-10-31T08:24:44;10.20;99.90
68051;DHT22;54839;51.364;7.246;2023-10-31T08:27:10;10.30;99.90
68051;DHT22;54839;51.364;7.246;2023-10-31T08:29:36;10.30;99.90
68051;DHT22;54839;51.364;7.246;2023-10-31T08:32:02;10.40;99.90
68051;DHT22;54839;51.364;7.246;2023-10-31T08:34:27;10.50;99.90
68051;DHT22;54839;51.364;7.246;2023-10-31T08:36:53;10.40;99.90
68051;DHT22;54839;51.364;7.246;2023-10-31T08:39:19;10.40;99.90
68051;DHT22;54839;51.364;7.246;2023-10-31T08:41:55;10.60;99.90
68051;DHT22;54839;51.364;7.246;2023-10-31T08:44:21;10.60;99.90
68051;DHT22;54839;51.364;7.246;2023-10-31T08:46:47;10.50;99.90
68051;DHT22;54839;51.364;7.246;2023-10-31T08:49:13;10.60;99.90
68051;DHT22;54839;51.364;7.246;2023-10-31T08:51:39;10.50;99.90
68051;DHT22;54839;51.364;7.246;2023-10-31T08:54:05;10.50;99.90
68051;DHT22;54839;51.364;7.246;2023-10-31T08:56:31;10.60;99.90
68051;DHT22;54839;51.364;7.246;2023-10-31T08:58:56;10.60;99.90
68051;DHT22;54839;51.364;7.246;2023-10-31T09:01:22;10.70;99.90
68051;DHT22;54839;51.364;7.246;2023-10-31T09:03:47;10.80;99.90
68051;DHT22;54839;51.364;7.246;2023-10-31T09:06:13;10.60;99.90
68051;DHT22;54839;51.364;7.246;2023-10-31T09:08:39;10.80;99.90
68051;DHT22;54839;51.364;7.246;2023-10-31T09:11:05;10.70;99.90
68051;DHT22;54839;51.364;7.246;2023-10-31T09:13:31;10.70;99.90
68051;DHT22;54839;51.364;7.246;2023-10-31T09:15:58;10.80;99.90
68051;DHT22;54839;51.364;7.246;2023-10-31T09:18:24;10.90;99.90
68051;DHT22;54839;51.364;7.246;2023-10-31T09:20:50;11.00;99.90
68051;DHT22;54839;51.364;7.246;2023-10-31T09:23:16;10.90;99.90
68051;DHT22;54839;51.364;7.246;2023-10-31T09:25:45;11.00;99.90
68051;DHT22;54839;51.364;7.246;2023-10-31T09:28:11;11.00;99.90
68051;DHT22;54839;51.364;7.246;2023-10-31T09:30:37;11.00;99.90
68051;DHT22;54839;51.364;7.246;2023-10-31T09:33:03;11.00;99.90
68051;DHT22;54839;51.364;7.246;2023-10-31T09:35:28;11.10;99.90
68051;DHT22;54839;51.364;7.246;2023-10-31T09:37:54;11.20;99.90
68051;DHT22;54839;51.364;7.246;2023-10-31T09:40:20;11.20;99.90
68051;DHT22;54839;51.364;7.246;2023-10-31T09:42:46;11.30;99.90
68051;DHT22;54839;51.364;7.246;2023-10-31T09:45:13;11.40;99.90
68051;DHT22;54839;51.364;7.246;2023-10-31T09:47:39;11.40;99.90
68051;DHT22;54839;51.364;7.246;2023-10-31T09:50:05;11.30;99.90
68051;DHT22;54839;51.364;7.246;2023-10-31T09:52:32;11.20;99.90
68051;DHT22;54839;51.364;7.246;2023-10-31T09:54:59;11.30;99.90
68051;DHT22;54839;51.364;7.246;2023-10-31T09:57:25;11.40;99.90
68051;DHT22;54839;51.364;7.246;2023-10-31T09:59:51;11.40;99.90
68051;DHT22;54839;51.364;7.246;2023-10-31T10:02:17;11.40;99.90
68051;DHT22;54839;51.364;7.246;2023-10-31T10:04:43;11.40;99.90
68051;DHT22;54839;51.364;7.246;2023-10-31T10:07:08;11.50;99.90
68051;DHT22;54839;51.364;7.246;2023-10-31T10:09:38;11.50;99.90
68051;DHT22;54839;51.364;7.246;2023-10-31T10:12:05;11.50;99.90
68051;DHT22;54839;51.364;7.246;2023-10-31T10:14:30;11.70;99.90
68051;DHT22;54839;51.364;7.246;2023-10-31T10:16:57;11.90;99.90
68051;DHT22;54839;51.364;7.246;2023-10-31T10:19:24;11.80;99.90
68051;DHT22;54839;51.364;7.246;2023-10-31T10:21:54;11.90;99.90
68051;DHT22;54839;51.364;7.246;2023-10-31T10:24:21;11.90;99.90
68051;DHT22;54839;51.364;7.246;2023-10-31T10:26:47;11.90;99.90
68051;DHT22;54839;51.364;7.246;2023-10-31T10:29:13;12.10;99.90
68051;DHT22;54839;51.364;7.246;2023-10-31T10:31:39;11.90;99.90
68051;DHT22;54839;51.364;7.246;2023-10-31T10:34:06;12.00;99.90
68051;DHT22;54839;51.364;7.246;2023-10-31T10:36:33;12.10;99.90
68051;DHT22;54839;51.364;7.246;2023-10-31T10:38:59;12.00;99.90
68051;DHT22;54839;51.364;7.246;2023-10-31T10:41:25;12.00;99.90
68051;DHT22;54839;51.364;7.246;2023-10-31T10:43:56;12.00;99.90
68051;DHT22;54839;51.364;7.246;2023-10-31T10:46:24;12.00;99.90
68051;DHT22;54839;51.364;7.246;2023-10-31T10:48:55;11.90;99.90
68051;DHT22;54839;51.364;7.246;2023-10-31T10:51:28;12.00;99.90
68051;DHT22;54839;51.364;7.246;2023-10-31T10:56:59;11.70;99.90
68051;DHT22;54839;51.364;7.246;2023-10-31T10:59:40;11.70;99.90
68051;DHT22;54839;51.364;7.246;2023-10-31T11:02:08;11.70;99.90
68051;DHT22;54839;51.364;7.246;2023-10-31T11:04:36;11.80;99.90
68051;DHT22;54839;51.364;7.246;2023-10-31T11:07:02;11.90;99.90
68051;DHT22;54839;51.364;7.246;2023-10-31T11:09:30;11.80;99.90
68051;DHT22;54839;51.364;7.246;2023-10-31T11:11:56;11.90;99.90
68051;DHT22;54839;51.364;7.246;2023-10-31T11:14:23;12.20;99.90
68051;DHT22;54839;51.364;7.246;2023-10-31T11:16:54;12.30;99.90
68051;DHT22;54839;51.364;7.246;2023-10-31T11:19:22;12.20;99.90
68051;DHT22;54839;51.364;7.246;2023-10-31T11:22:00;12.20;99.90
68051;DHT22;54839;51.364;7.246;2023-10-31T11:24:31;12.10;99.90
68051;DHT22;54839;51.364;7.246;2023-10-31T11:27:02;12.10;99.90
68051;DHT22;54839;51.364;7.246;2023-10-31T11:29:28;12.10;99.90
68051;DHT22;54839;51.364;7.246;2023-10-31T11:31:56;12.20;99.90
68051;DHT22;54839;51.364;7.246;2023-10-31T11:34:22;12.20;99.90
68051;DHT22;54839;51.364;7.246;2023-10-31T11:36:50;12.40;99.90
68051;DHT22;54839;51.364;7.246;2023-10-31T11:39:19;12.70;99.90
68051;DHT22;54839;51.364;7.246;2023-10-31T11:41:50;12.60;99.90
68051;DHT22;54839;51.364;7.246;2023-10-31T11:44:16;12.80;99.90
68051;DHT22;54839;51.364;7.246;2023-10-31T11:46:42;12.80;99.90
68051;DHT22;54839;51.364;7.246;2023-10-31T11:49:08;12.80;99.90
68051;DHT22;54839;51.364;7.246;2023-10-31T11:51:34;12.70;99.90
68051;DHT22;54839;51.364;7.246;2023-10-31T11:54:04;12.70;99.90
68051;DHT22;54839;51.364;7.246;2023-10-31T11:56:33;12.60;99.90
68051;DHT22;54839;51.364;7.246;2023-10-31T11:59:03;12.70;99.90
68051;DHT22;54839;51.364;7.246;2023-10-31T12:01:29;12.80;99.90
68051;DHT22;54839;51.364;7.246;2023-10-31T12:03:55;13.00;99.90
68051;DHT22;54839;51.364;7.246;2023-10-31T12:06:21;13.00;99.90
68051;DHT22;54839;51.364;7.246;2023-10-31T12:08:48;13.00;99.90
68051;DHT22;54839;51.364;7.246;2023-10-31T12:11:22;12.80;99.90
68051;DHT22;54839;51.364;7.246;2023-10-31T12:16:24;12.60;99.90
68051;DHT22;54839;51.364;7.246;2023-10-31T12:18:58;12.80;99.90
68051;DHT22;54839;51.364;7.246;2023-10-31T12:21:43;12.80;99.90
68051;DHT22;54839;51.364;7.246;2023-10-31T12:24:11;13.00;99.90
68051;DHT22;54839;51.364;7.246;2023-10-31T12:26:37;13.00;99.90
68051;DHT22;54839;51.364;7.246;2023-10-31T12:29:11;13.20;99.90
68051;DHT22;54839;51.364;7.246;2023-10-31T12:31:48;13.40;99.90
68051;DHT22;54839;51.364;7.246;2023-10-31T12:34:15;13.40;99.90
68051;DHT22;54839;51.364;7.246;2023-10-31T12:36:42;13.70;99.90
68051;DHT22;54839;51.364;7.246;2023-10-31T12:39:11;14.30;99.90
68051;DHT22;54839;51.364;7.246;2023-10-31T12:41:38;14.20;99.90
68051;DHT22;54839;51.364;7.246;2023-10-31T12:44:05;14.10;99.90
68051;DHT22;54839;51.364;7.246;2023-10-31T12:46:32;13.70;99.90
68051;DHT22;54839;51.364;7.246;2023-10-31T12:48:58;13.80;99.90
68051;DHT22;54839;51.364;7.246;2023-10-31T12:51:24;13.80;99.90
68051;DHT22;54839;51.364;7.246;2023-10-31T12:53:53;14.90;99.90
68051;DHT22;54839;51.364;7.246;2023-10-31T12:56:41;16.70;99.90
68051;DHT22;54839;51.364;7.246;2023-10-31T12:59:07;16.50;99.90
68051;DHT22;54839;51.364;7.246;2023-10-31T13:01:41;17.20;99.90
68051;DHT22;54839;51.364;7.246;2023-10-31T13:04:07;17.90;99.90
68051;DHT22;54839;51.364;7.246;2023-10-31T13:06:33;17.80;99.90
68051;DHT22;54839;51.364;7.246;2023-10-31T13:08:59;18.20;99.90
68051;DHT22;54839;51.364;7.246;2023-10-31T13:11:29;17.10;99.90
68051;DHT22;54839;51.364;7.246;2023-10-31T13:13:55;17.70;99.90
68051;DHT22;54839;51.364;7.246;2023-10-31T13:16:20;18.30;99.90
68051;DHT22;54839;51.364;7.246;2023-10-31T13:18:46;19.40;99.90
68051;DHT22;54839;51.364;7.246;2023-10-31T13:21:12;18.80;99.90
68051;DHT22;54839;51.364;7.246;2023-10-31T13:23:40;18.30;99.90
68051;DHT22;54839;51.364;7.246;2023-10-31T13:26:09;17.20;99.90
68051;DHT22;54839;51.364;7.246;2023-10-31T13:28:35;17.60;99.90
68051;DHT22;54839;51.364;7.246;2023-10-31T13:31:01;17.90;99.90
68051;DHT22;54839;51.364;7.246;2023-10-31T13:33:28;18.80;99.90
68051;DHT22;54839;51.364;7.246;2023-10-31T13:35:53;19.70;99.90
68051;DHT22;54839;51.364;7.246;2023-10-31T13:38:19;19.30;99.90
68051;DHT22;54839;51.364;7.246;2023-10-31T13:40:44;19.40;99.90
68051;DHT22;54839;51.364;7.246;2023-10-31T13:43:10;18.20;99.90
68051;DHT22;54839;51.364;7.246;2023-10-31T13:45:36;17.40;99.90
68051;DHT22;54839;51.364;7.246;2023-10-31T13:48:02;17.80;99.90
68051;DHT22;54839;51.364;7.246;2023-10-31T13:50:28;18.00;99.90
68051;DHT22;54839;51.364;7.246;2023-10-31T13:52:53;18.70;99.90
68051;DHT22;54839;51.364;7.246;2023-10-31T13:55:19;18.20;99.90
68051;DHT22;54839;51.364;7.246;2023-10-31T13:57:45;19.00;99.90
68051;DHT22;54839;51.364;7.246;2023-10-31T14:00:11;19.10;99.90
68051;DHT22;54839;51.364;7.246;2023-10-31T14:02:36;18.80;99.90
68051;DHT22;54839;51.364;7.246;2023-10-31T14:05:02;20.20;99.90
68051;DHT22;54839;51.364;7.246;2023-10-31T14:07:29;19.80;99.90
68051;DHT22;54839;51.364;7.246;2023-10-31T14:09:55;19.00;99.90
68051;DHT22;54839;51.364;7.246;2023-10-31T14:12:22;16.50;99.90
68051;DHT22;54839;51.364;7.246;2023-10-31T14:14:48;15.90;99.90
68051;DHT22;54839;51.364;7.246;2023-10-31T14:17:15;16.30;99.90
68051;DHT22;54839;51.364;7.246;2023-10-31T14:19:42;16.90;99.90
68051;DHT22;54839;51.364;7.246;2023-10-31T14:22:08;17.30;99.90
68051;DHT22;54839;51.364;7.246;2023-10-31T14:24:33;17.20;99.90
68051;DHT22;54839;51.364;7.246;2023-10-31T14:27:00;16.40;99.90
68051;DHT22;54839;51.364;7.246;2023-10-31T14:29:26;16.30;99.90
68051;DHT22;54839;51.364;7.246;2023-10-31T14:31:52;17.80;99.90
68051;DHT22;54839;51.364;7.246;2023-10-31T14:34:22;19.60;99.90
68051;DHT22;54839;51.364;7.246;2023-10-31T14:36:48;20.30;99.90
68051;DHT22;54839;51.364;7.246;2023-10-31T14:39:14;20.40;99.90
68051;DHT22;54839;51.364;7.246;2023-10-31T14:41:39;20.50;99.90
68051;DHT22;54839;51.364;7.246;2023-10-31T14:44:05;20.00;99.90
68051;DHT22;54839;51.364;7.246;2023-10-31T14:46:31;18.10;99.90
68051;DHT22;54839;51.364;7.246;2023-10-31T14:48:57;16.40;99.90
68051;DHT22;54839;51.364;7.246;2023-10-31T14:51:23;15.70;99.90
68051;DHT22;54839;51.364;7.246;2023-10-31T14:53:49;15.40;99.90
68051;DHT22;54839;51.364;7.246;2023-10-31T14:56:14;14.40;99.90
68051;DHT22;54839;51.364;7.246;2023-10-31T14:58:40;14.30;99.90
68051;DHT22;54839;51.364;7.246;2023-10-31T15:01:07;13.90;99.90
68051;DHT22;54839;51.364;7.246;2023-10-31T15:03:32;13.70;99.90
68051;DHT22;54839;51.364;7.246;2023-10-31T15:05:58;13.70;99.90
68051;DHT22;54839;51.364;7.246;2023-10-31T15:08:24;13.70;99.90
68051;DHT22;54839;51.364;7.246;2023-10-31T15:10:52;13.60;99.90
68051;DHT22;54839;51.364;7.246;2023-10-31T15:13:18;13.60;99.90
68051;DHT22;54839;51.364;7.246;2023-10-31T15:15:43;13.50;99.90
68051;DHT22;54839;51.364;7.246;2023-10-31T15:18:09;13.50;99.90
68051;DHT22;54839;51.364;7.246;2023-10-31T15:20:34;13.30;99.90
68051;DHT22;54839;51.364;7.246;2023-10-31T15:23:00;13.30;99.90
68051;DHT22;54839;51.364;7.246;2023-10-31T15:25:26;13.00;99.90
68051;DHT22;54839;51.364;7.246;2023-10-31T15:27:51;13.00;99.90
68051;DHT22;54839;51.364;7.246;2023-10-31T15:30:17;12.80;99.90
68051;DHT22;54839;51.364;7.246;2023-10-31T15:32:42;12.70;99.90
68051;DHT22;54839;51.364;7.246;2023-10-31T15:35:08;12.50;99.90